createdAt,value
2022-08-04T00:02:27.282Z,61.92
2022-08-04T00:05:00.484Z,62.46
2022-08-04T00:07:48.343Z,61.91
2022-08-04T00:10:18.833Z,62.86
2022-08-04T00:12:50.055Z,62.62
2022-08-04T00:15:17.978Z,62.60
2022-08-04T00:18:04.476Z,62.70
2022-08-04T00:20:33.988Z,62.32
2022-08-04T00:23:02.291Z,62.77
2022-08-04T00:25:29.117Z,62.99
2022-08-04T00:27:56.225Z,63.74
2022-08-04T00:30:22.915Z,63.84
2022-08-04T00:32:49.625Z,63.85
2022-08-04T00:35:17.665Z,63.53
2022-08-04T00:37:45.619Z,63.82
2022-08-04T00:40:12.632Z,63.36
2022-08-04T00:42:59.337Z,63.40
2022-08-04T00:46:15.885Z,64.05
2022-08-04T00:48:54.578Z,65.09
2022-08-04T00:51:30.227Z,64.31
2022-08-04T00:54:11.787Z,64.21
2022-08-04T00:57:30.045Z,65.18
2022-08-04T01:00:03.959Z,64.77
2022-08-04T01:02:48.091Z,64.79
2022-08-04T01:05:37.864Z,65.36
2022-08-04T01:08:23.394Z,65.76
2022-08-04T01:11:08.216Z,65.20
2022-08-04T01:14:00.795Z,65.92
2022-08-04T01:16:28.856Z,66.62
2022-08-04T01:19:35.219Z,66.63
2022-08-04T01:22:18.783Z,66.48
2022-08-04T01:24:59.494Z,66.95
2022-08-04T01:28:05.187Z,66.16
2022-08-04T01:30:34.606Z,66.43
2022-08-04T01:33:04.922Z,67.00
2022-08-04T01:35:48.877Z,67.48
2022-08-04T01:38:26.151Z,66.63
2022-08-04T01:40:56.908Z,68.43
2022-08-04T01:43:24.525Z,67.04
2022-08-04T01:45:58.050Z,67.34
2022-08-04T01:48:26.120Z,68.15
2022-08-04T01:50:54.368Z,67.47
2022-08-04T01:53:21.479Z,67.80
2022-08-04T01:55:55.598Z,67.79
2022-08-04T01:58:23.425Z,68.32
2022-08-04T02:01:08.946Z,68.56
2022-08-04T02:04:20.426Z,69.02
2022-08-04T02:07:03.800Z,69.38
2022-08-04T02:09:54.986Z,69.30
2022-08-04T02:12:26.082Z,68.67
2022-08-04T02:15:22.348Z,68.35
2022-08-04T02:17:57.262Z,68.89
2022-08-04T02:20:29.135Z,68.97
2022-08-04T02:23:43.151Z,68.30
2022-08-04T02:26:22.612Z,68.91
2022-08-04T02:29:03.765Z,68.51
2022-08-04T02:31:43.258Z,69.88
2022-08-04T02:34:13.877Z,70.99
2022-08-04T02:36:41.691Z,69.80
2022-08-04T02:39:09.869Z,70.16
2022-08-04T02:41:40.016Z,70.10
2022-08-04T02:44:10.350Z,70.27
2022-08-04T02:46:39.083Z,70.47
2022-08-04T02:49:07.862Z,70.91
2022-08-04T02:51:36.735Z,70.32
2022-08-04T02:54:06.790Z,70.90
2022-08-04T02:56:38.632Z,72.11
2022-08-04T02:59:08.260Z,71.71
2022-08-04T03:01:35.293Z,71.31
2022-08-04T03:04:28.797Z,71.12
2022-08-04T03:07:16.727Z,71.19
2022-08-04T03:10:14.480Z,69.63
2022-08-04T03:13:02.740Z,69.10
2022-08-04T03:16:08.226Z,68.87
2022-08-04T03:18:46.832Z,70.57
2022-08-04T03:21:19.328Z,69.59
2022-08-04T03:24:10.374Z,70.06
2022-08-04T03:26:48.989Z,71.04
2022-08-04T03:29:37.614Z,70.70
2022-08-04T03:32:31.939Z,71.15
2022-08-04T03:35:40.380Z,72.04
2022-08-04T03:38:45.155Z,70.83
2022-08-04T03:41:51.325Z,71.25
2022-08-04T03:44:20.864Z,71.46
2022-08-04T03:46:56.441Z,70.12
2022-08-04T03:49:35.065Z,70.00
2022-08-04T03:52:34.712Z,69.31
2022-08-04T03:55:25.403Z,69.70
2022-08-04T03:58:31.868Z,70.67
2022-08-04T04:02:01.133Z,69.21
2022-08-04T04:04:30.622Z,69.24
2022-08-04T04:07:12.383Z,68.84
2022-08-04T04:10:05.864Z,69.31
2022-08-04T04:12:41.738Z,68.16
2022-08-04T04:15:35.494Z,68.32
2022-08-04T04:18:33.760Z,68.48
2022-08-04T04:21:35.542Z,69.35
2022-08-04T04:24:32.846Z,67.95
2022-08-04T04:27:27.822Z,67.10
2022-08-04T04:30:19.170Z,67.23
2022-08-04T04:33:34.923Z,66.42
2022-08-04T04:36:25.279Z,65.39
2022-08-04T04:39:03.323Z,64.21
2022-08-04T04:41:41.626Z,63.90
2022-08-04T04:44:08.082Z,64.50
2022-08-04T04:47:06.914Z,65.04
2022-08-04T04:49:44.916Z,65.32
2022-08-04T04:52:27.213Z,65.12
2022-08-04T04:55:21.790Z,63.83
2022-08-04T04:57:54.770Z,64.17
2022-08-04T05:00:26.340Z,63.62
2022-08-04T05:03:00.405Z,63.13
2022-08-04T05:05:48.691Z,61.18
2022-08-04T05:08:45.317Z,61.38
2022-08-04T05:11:32.379Z,60.22
2022-08-04T05:14:36.506Z,59.29
2022-08-04T05:17:15.867Z,57.98
2022-08-04T05:20:04.438Z,58.08
2022-08-04T05:22:39.456Z,57.89
2022-08-04T05:25:17.687Z,56.79
2022-08-04T05:27:56.291Z,56.63
2022-08-04T05:30:27.275Z,56.97
2022-08-04T05:33:00.992Z,57.23
2022-08-04T05:35:53.988Z,56.80
2022-08-04T05:38:25.068Z,56.33
2022-08-04T05:40:52.897Z,56.36
2022-08-04T05:43:22.647Z,55.89
2022-08-04T05:45:51.578Z,56.06
2022-08-04T05:48:18.854Z,56.04
2022-08-04T05:50:46.559Z,56.15
2022-08-04T05:53:16.741Z,54.91
2022-08-04T05:55:49.033Z,55.01
2022-08-04T05:58:29.544Z,53.84
2022-08-04T06:00:58.387Z,52.54
2022-08-04T06:03:29.008Z,53.03
2022-08-04T06:05:57.693Z,51.60
2022-08-04T06:08:25.099Z,52.22
2022-08-04T06:10:54.555Z,51.53
2022-08-04T06:13:48.150Z,50.55
2022-08-04T06:16:30.311Z,51.02
2022-08-04T06:19:59.592Z,51.06
2022-08-04T06:21:50.000Z,51.14
2022-08-04T06:24:20.493Z,50.16
2022-08-04T06:26:49.543Z,50.42
2022-08-04T06:29:26.996Z,49.88
2022-08-04T06:32:27.210Z,50.06
2022-08-04T06:34:50.959Z,49.37
2022-08-04T06:37:41.215Z,48.56
2022-08-04T06:40:31.512Z,49.35
2022-08-04T06:42:56.121Z,48.54
2022-08-04T06:45:24.144Z,48.25
2022-08-04T06:47:51.112Z,47.84
2022-08-04T06:51:25.476Z,46.83
2022-08-04T06:53:06.898Z,48.29
2022-08-04T06:55:35.131Z,48.06
2022-08-04T06:58:03.536Z,47.71
2022-08-04T07:00:32.328Z,48.04
2022-08-04T07:03:00.919Z,47.22
2022-08-04T07:05:28.368Z,47.34
2022-08-04T07:07:57.096Z,46.15
2022-08-04T07:10:27.745Z,46.07
2022-08-04T07:12:56.615Z,45.85
2022-08-04T07:15:23.666Z,44.71
2022-08-04T07:17:52.292Z,44.13
2022-08-04T07:20:34.477Z,44.92
2022-08-04T07:23:04.128Z,43.66
2022-08-04T07:26:00.107Z,44.55
2022-08-04T07:28:17.806Z,44.41
2022-08-04T07:30:45.581Z,43.83
2022-08-04T07:33:12.599Z,43.25
2022-08-04T07:36:03.744Z,42.63
2022-08-04T07:38:27.691Z,43.15
2022-08-04T07:40:55.535Z,42.60
2022-08-04T07:43:23.172Z,43.03
2022-08-04T07:45:50.025Z,42.27
2022-08-04T07:48:18.897Z,41.63
2022-08-04T07:50:46.879Z,42.95
2022-08-04T07:53:54.851Z,41.83
2022-08-04T07:56:02.772Z,40.07
2022-08-04T07:58:30.244Z,41.29
2022-08-04T08:00:58.046Z,41.09
2022-08-04T08:03:27.324Z,40.35
2022-08-04T08:05:54.721Z,39.65
2022-08-04T08:08:40.989Z,39.69
2022-08-04T08:11:09.357Z,38.32
2022-08-04T08:13:37.054Z,38.16
2022-08-04T08:16:05.374Z,38.70
2022-08-04T08:18:32.028Z,37.73
2022-08-04T08:20:58.685Z,37.29
2022-08-04T08:23:26.515Z,36.89
2022-08-04T08:25:54.326Z,39.56
2022-08-04T08:28:20.997Z,37.84
2022-08-04T08:30:52.604Z,38.88
2022-08-04T08:33:21.207Z,39.54
2022-08-04T08:35:53.782Z,38.67
2022-08-04T08:38:33.581Z,37.15
2022-08-04T08:41:27.759Z,39.11
2022-08-04T08:44:37.516Z,37.05
2022-08-04T08:47:30.502Z,36.46
2022-08-04T08:50:47.566Z,36.52
2022-08-04T08:53:31.202Z,35.32
2022-08-04T08:56:30.941Z,35.17
2022-08-04T08:59:15.079Z,36.85
2022-08-04T09:01:57.322Z,35.55
2022-08-04T09:04:51.863Z,34.34
2022-08-04T09:07:30.455Z,34.01
2022-08-04T09:10:16.282Z,35.54
2022-08-04T09:12:57.890Z,36.12
2022-08-04T09:15:39.749Z,33.06
2022-08-04T09:18:31.346Z,35.62
2022-08-04T09:21:30.771Z,35.77
2022-08-04T09:24:05.044Z,35.42
2022-08-04T09:27:00.908Z,35.65
2022-08-04T09:29:45.743Z,34.58
2022-08-04T09:32:23.578Z,34.39
2022-08-04T09:35:20.431Z,33.72
2022-08-04T09:38:10.273Z,32.94
2022-08-04T09:40:58.851Z,32.23
2022-08-04T09:44:42.342Z,32.71
2022-08-04T09:46:27.844Z,31.55
2022-08-04T09:49:07.684Z,31.63
2022-08-04T09:51:59.027Z,31.86
2022-08-04T09:54:48.947Z,31.60
2022-08-04T09:57:15.500Z,32.76
2022-08-04T10:00:09.259Z,32.08
2022-08-04T10:02:44.365Z,31.00
2022-08-04T10:05:19.739Z,32.10
2022-08-04T10:08:16.423Z,32.01
2022-08-04T10:11:00.377Z,32.98
2022-08-04T10:13:53.361Z,33.00
2022-08-04T10:16:45.142Z,30.29
2022-08-04T10:19:35.311Z,28.44
2022-08-04T10:22:50.019Z,28.92
2022-08-04T10:26:06.251Z,29.56
2022-08-04T10:28:45.834Z,30.67
2022-08-04T10:31:20.858Z,30.55
2022-08-04T10:33:57.843Z,30.67
2022-08-04T10:36:30.327Z,30.06
2022-08-04T10:39:41.759Z,30.10
2022-08-04T10:42:03.500Z,29.15
2022-08-04T10:44:48.660Z,26.38
2022-08-04T10:47:20.178Z,27.24
2022-08-04T10:49:54.377Z,27.02
2022-08-04T10:52:33.797Z,27.15
2022-08-04T10:56:07.777Z,28.78
2022-08-04T10:58:47.792Z,29.05
2022-08-04T11:02:01.397Z,27.17
2022-08-04T11:04:35.556Z,26.41
2022-08-04T11:07:02.631Z,27.97
2022-08-04T11:09:31.674Z,28.92
2022-08-04T11:12:07.119Z,27.96
2022-08-04T11:14:36.798Z,29.84
2022-08-04T11:17:11.315Z,26.67
2022-08-04T11:19:53.285Z,28.63
2022-08-04T11:22:23.456Z,28.13
2022-08-04T11:25:03.233Z,27.39
2022-08-04T11:27:40.427Z,27.05
2022-08-04T11:30:08.961Z,26.32
2022-08-04T11:33:09.407Z,26.77
2022-08-04T11:35:44.563Z,27.45
2022-08-04T11:38:43.683Z,28.67
2022-08-04T11:41:18.706Z,26.17
2022-08-04T11:44:00.713Z,24.08
2022-08-04T11:46:44.097Z,25.27
2022-08-04T11:49:15.522Z,24.88
2022-08-04T11:51:44.538Z,25.04
2022-08-04T11:54:12.824Z,26.59
2022-08-04T11:56:39.688Z,25.93
2022-08-04T11:59:10.140Z,25.73
2022-08-04T12:01:44.432Z,24.38
2022-08-04T12:04:24.350Z,24.45
2022-08-04T12:07:33.052Z,25.23
2022-08-04T12:10:43.363Z,25.33
2022-08-04T12:13:31.716Z,25.24
2022-08-04T12:16:10.808Z,25.94
2022-08-04T12:18:47.300Z,22.83
2022-08-04T12:21:55.964Z,23.45
2022-08-04T12:24:33.547Z,24.37
2022-08-04T12:27:13.839Z,24.48
2022-08-04T12:29:41.560Z,23.93
2022-08-04T12:32:33.005Z,24.41
2022-08-04T12:35:21.822Z,24.54
2022-08-04T12:38:08.606Z,23.88
2022-08-04T12:40:46.976Z,24.55
2022-08-04T12:43:20.178Z,24.41
2022-08-04T12:45:49.833Z,22.20
2022-08-04T12:48:21.436Z,23.74
2022-08-04T12:50:51.204Z,23.17
2022-08-04T12:53:31.519Z,24.17
2022-08-04T12:56:01.716Z,22.19
2022-08-04T12:58:42.046Z,22.41
2022-08-04T13:02:10.155Z,22.93
2022-08-04T13:04:29.297Z,22.08
2022-08-04T13:07:10.763Z,22.26
2022-08-04T13:09:38.424Z,22.55
2022-08-04T13:12:13.718Z,23.44
2022-08-04T13:14:44.482Z,23.25
2022-08-04T13:17:12.260Z,20.60
2022-08-04T13:19:41.439Z,20.84
2022-08-04T13:22:09.256Z,22.21
2022-08-04T13:24:56.681Z,21.38
2022-08-04T13:27:25.838Z,22.18
2022-08-04T13:29:58.745Z,21.47
2022-08-04T13:32:31.021Z,21.91
2022-08-04T13:35:00.363Z,22.79
2022-08-04T13:37:38.868Z,22.12
2022-08-04T13:40:09.270Z,20.80
2022-08-04T13:42:38.964Z,20.51
2022-08-04T13:45:08.362Z,20.23
2022-08-04T13:47:38.227Z,19.59
2022-08-04T13:50:13.813Z,19.89
2022-08-04T13:52:42.820Z,19.41
2022-08-04T13:55:19.910Z,19.91
2022-08-04T13:57:52.375Z,20.16
2022-08-04T14:00:29.911Z,21.24
2022-08-04T14:03:23.281Z,20.65
2022-08-04T14:06:29.095Z,19.12
2022-08-04T14:08:58.710Z,18.67
2022-08-04T14:12:09.922Z,18.77
2022-08-04T14:14:30.000Z,18.67
2022-08-04T14:17:05.714Z,18.60
2022-08-04T14:20:07.246Z,17.96
2022-08-04T14:22:36.615Z,17.85
2022-08-04T14:25:16.738Z,16.95
2022-08-04T14:27:55.915Z,17.42
2022-08-04T14:30:36.936Z,17.16
2022-08-04T14:34:02.041Z,16.40
2022-08-04T14:36:04.133Z,16.58
2022-08-04T14:38:58.529Z,17.11
2022-08-04T14:41:31.530Z,18.28
2022-08-04T14:44:00.807Z,16.98
2022-08-04T14:46:36.279Z,17.32
2022-08-04T14:49:10.225Z,16.11
2022-08-04T14:51:59.014Z,13.83
2022-08-04T14:54:35.870Z,13.75
2022-08-04T14:57:06.466Z,13.35
2022-08-04T15:00:01.604Z,12.48
2022-08-04T15:02:30.515Z,12.84
2022-08-04T15:04:57.761Z,13.49
2022-08-04T15:07:24.797Z,13.96
2022-08-04T15:09:53.925Z,13.63
2022-08-04T15:12:21.206Z,12.60
2022-08-04T15:14:48.010Z,12.34
2022-08-04T15:17:29.202Z,12.22
2022-08-04T15:19:57.312Z,11.57
2022-08-04T15:22:24.071Z,11.46
2022-08-04T15:24:54.911Z,11.28
2022-08-04T15:27:26.612Z,11.93
2022-08-04T15:30:01.618Z,11.22
2022-08-04T15:32:32.062Z,11.68
2022-08-04T15:35:30.822Z,12.52
2022-08-04T15:38:24.058Z,11.87
2022-08-04T15:41:08.046Z,10.53
2022-08-04T15:43:40.436Z,10.41
2022-08-04T15:46:43.440Z,10.87
2022-08-04T15:48:56.085Z,11.81
2022-08-04T15:51:32.091Z,11.28
2022-08-04T15:54:03.483Z,10.53
2022-08-04T15:56:34.916Z,9.87
2022-08-04T15:59:01.455Z,10.67
2022-08-04T16:01:28.268Z,11.43
2022-08-04T16:03:59.894Z,15.21
2022-08-04T16:06:29.086Z,19.39
2022-08-04T16:09:04.124Z,20.63
2022-08-04T16:11:32.595Z,17.07
2022-08-04T16:13:59.632Z,18.17
2022-08-04T16:16:38.567Z,18.16
2022-08-04T16:19:35.329Z,18.88
2022-08-04T16:22:03.871Z,18.41
2022-08-04T16:24:36.235Z,18.35
2022-08-04T16:27:13.729Z,19.14
2022-08-04T16:29:47.925Z,19.57
2022-08-04T16:32:20.616Z,20.38
2022-08-04T16:34:55.477Z,19.48
2022-08-04T16:37:37.841Z,20.78
2022-08-04T16:40:39.003Z,20.70
2022-08-04T16:43:17.691Z,20.93
2022-08-04T16:45:47.110Z,22.09
2022-08-04T16:48:17.760Z,22.51
2022-08-04T16:51:06.442Z,21.13
2022-08-04T16:53:53.539Z,22.44
2022-08-04T16:56:29.588Z,21.39
2022-08-04T16:58:56.490Z,21.13
2022-08-04T17:01:33.787Z,20.92
2022-08-04T17:04:05.100Z,21.28
2022-08-04T17:06:40.234Z,20.97
2022-08-04T17:09:11.321Z,20.80
2022-08-04T17:11:38.117Z,21.12
2022-08-04T17:14:06.137Z,21.15
2022-08-04T17:16:38.311Z,22.84
2022-08-04T17:19:07.167Z,21.73
2022-08-04T17:21:52.429Z,21.26
2022-08-04T17:24:18.970Z,21.67
2022-08-04T17:26:54.527Z,23.35
2022-08-04T17:29:43.247Z,23.41
2022-08-04T17:32:20.799Z,22.27
2022-08-04T17:34:54.452Z,22.94
2022-08-04T17:37:41.208Z,25.41
2022-08-04T17:40:22.872Z,25.60
2022-08-04T17:44:02.979Z,27.03
2022-08-04T17:46:28.598Z,25.00
2022-08-04T17:49:09.048Z,26.67
2022-08-04T17:52:05.235Z,27.93
2022-08-04T17:54:36.566Z,31.20
2022-08-04T17:57:20.017Z,28.13
2022-08-04T18:02:39.064Z,29.54
2022-08-04T18:05:11.852Z,31.12
2022-08-04T18:08:39.101Z,32.43
2022-08-04T18:10:55.353Z,31.78
2022-08-04T18:13:27.402Z,30.83
2022-08-04T18:16:02.666Z,31.39
2022-08-04T18:18:29.870Z,31.21
2022-08-04T18:20:59.793Z,30.51
2022-08-04T18:23:32.141Z,30.90
2022-08-04T18:26:02.058Z,34.06
2022-08-04T18:28:33.073Z,33.49
2022-08-04T18:31:00.733Z,33.40
2022-08-04T18:33:39.489Z,34.97
2022-08-04T18:36:34.313Z,35.17
2022-08-04T18:38:58.333Z,36.45
2022-08-04T18:41:27.167Z,36.95
2022-08-04T18:43:56.737Z,36.28
2022-08-04T18:46:26.904Z,36.68
2022-08-04T18:48:54.591Z,36.72
2022-08-04T18:51:24.938Z,36.48
2022-08-04T18:53:58.959Z,35.87
2022-08-04T18:56:32.896Z,36.62
2022-08-04T18:59:10.557Z,36.81
2022-08-04T19:02:12.225Z,39.44
2022-08-04T19:04:32.458Z,38.53
2022-08-04T19:07:28.890Z,38.29
2022-08-04T19:09:52.045Z,37.54
2022-08-04T19:12:26.569Z,37.36
2022-08-04T19:15:08.427Z,37.98
2022-08-04T19:17:54.197Z,39.28
2022-08-04T19:20:26.328Z,40.54
2022-08-04T19:24:29.484Z,40.17
2022-08-04T19:25:58.705Z,40.47
2022-08-04T19:28:29.818Z,40.95
2022-08-04T19:30:57.686Z,41.59
2022-08-04T19:33:25.368Z,40.80
2022-08-04T19:35:52.418Z,41.73
2022-08-04T19:38:20.638Z,41.95
2022-08-04T19:40:50.682Z,40.79
2022-08-04T19:43:20.886Z,40.96
2022-08-04T19:45:51.170Z,43.51
2022-08-04T19:48:19.982Z,43.04
2022-08-04T19:50:48.259Z,42.56
2022-08-04T19:53:19.562Z,43.51
2022-08-04T19:55:49.643Z,42.80
2022-08-04T19:58:16.870Z,43.17
2022-08-04T20:00:44.802Z,43.56
2022-08-04T20:03:20.275Z,43.55
2022-08-04T20:05:53.475Z,43.60
2022-08-04T20:08:24.168Z,43.38
2022-08-04T20:10:52.311Z,43.90
2022-08-04T20:13:25.514Z,44.21
2022-08-04T20:16:04.719Z,44.69
2022-08-04T20:18:36.061Z,46.59
2022-08-04T20:21:11.253Z,45.73
2022-08-04T20:23:47.749Z,46.06
2022-08-04T20:26:15.447Z,45.41
2022-08-04T20:28:42.250Z,44.95
2022-08-04T20:31:18.447Z,45.61
2022-08-04T20:33:49.090Z,46.19
2022-08-04T20:36:20.276Z,46.18
2022-08-04T20:38:51.914Z,47.15
2022-08-04T20:41:20.799Z,46.28
2022-08-04T20:43:49.756Z,46.84
2022-08-04T20:46:29.290Z,48.34
2022-08-04T20:48:56.338Z,47.79
2022-08-04T20:51:32.193Z,47.66
2022-08-04T20:54:01.974Z,47.35
2022-08-04T20:56:30.522Z,47.77
2022-08-04T20:58:59.437Z,49.84
2022-08-04T21:01:29.570Z,48.27
2022-08-04T21:04:27.483Z,48.19
2022-08-04T21:06:55.396Z,48.50
2022-08-04T21:09:26.531Z,49.07
2022-08-04T21:12:06.982Z,50.51
2022-08-04T21:14:34.580Z,49.71
2022-08-04T21:17:02.999Z,50.47
2022-08-04T21:19:31.700Z,49.62
2022-08-04T21:21:59.166Z,51.07
2022-08-04T21:24:26.571Z,50.35
2022-08-04T21:26:56.788Z,50.63
2022-08-04T21:29:34.541Z,50.89
2022-08-04T21:32:07.726Z,50.21
2022-08-04T21:34:39.618Z,50.82
2022-08-04T21:39:59.325Z,53.83
2022-08-04T21:42:42.506Z,53.09
2022-08-04T21:45:09.913Z,52.33
2022-08-04T21:47:46.561Z,53.80
2022-08-04T21:50:19.940Z,53.69
2022-08-04T21:52:47.644Z,53.32
2022-08-04T21:55:14.182Z,53.58
2022-08-04T21:57:42.014Z,54.18
2022-08-04T22:00:10.815Z,54.48
2022-08-04T22:02:44.820Z,53.94
2022-08-04T22:05:11.882Z,54.37
2022-08-04T22:07:50.539Z,54.27
2022-08-04T22:10:18.463Z,54.13
2022-08-04T22:12:52.109Z,55.94
2022-08-04T22:16:02.773Z,55.87
2022-08-04T22:18:05.568Z,57.48
2022-08-04T22:20:32.108Z,56.16
2022-08-04T22:23:15.349Z,56.15
2022-08-04T22:25:42.163Z,55.98
2022-08-04T22:28:11.624Z,57.52
2022-08-04T22:30:48.325Z,57.53
2022-08-04T22:33:18.921Z,56.78
2022-08-04T22:35:49.936Z,57.88
2022-08-04T22:38:36.978Z,57.02
2022-08-04T22:41:17.696Z,58.76
2022-08-04T22:43:45.986Z,58.17
2022-08-04T22:46:26.811Z,58.43
2022-08-04T22:48:54.405Z,58.07
2022-08-04T22:51:22.444Z,57.81
2022-08-04T22:53:50.201Z,60.14
2022-08-04T22:56:38.124Z,59.57
2022-08-04T22:59:04.815Z,59.23
2022-08-04T23:01:57.963Z,58.80
2022-08-04T23:04:17.911Z,59.37
2022-08-04T23:06:44.453Z,60.71
2022-08-04T23:09:15.993Z,60.61
2022-08-04T23:11:43.770Z,59.83
2022-08-04T23:14:10.536Z,59.74
2022-08-04T23:16:40.882Z,59.09
2022-08-04T23:19:12.159Z,59.68
2022-08-04T23:21:47.810Z,60.01
2022-08-04T23:24:29.761Z,60.01
2022-08-04T23:26:58.023Z,60.88
2022-08-04T23:29:25.186Z,60.47
2022-08-04T23:31:59.729Z,61.83
2022-08-04T23:34:29.179Z,61.16
2022-08-04T23:36:56.282Z,60.13
2022-08-04T23:39:25.886Z,60.45
2022-08-04T23:42:15.002Z,60.96
2022-08-04T23:44:47.354Z,60.39
2022-08-04T23:48:15.932Z,61.17
2022-08-04T23:50:00.626Z,61.16
2022-08-04T23:52:29.621Z,60.73
2022-08-04T23:55:00.691Z,60.18
2022-08-04T23:58:02.263Z,60.07
